createdAt,value
2018-03-16T00:00:34.223Z,60.76
2018-03-16T00:03:06.696Z,62.09
2018-03-16T00:05:39.205Z,60.37
2018-03-16T00:08:11.709Z,59.83
2018-03-16T00:10:44.381Z,60.44
2018-03-16T00:13:16.952Z,62.02
2018-03-16T00:15:49.462Z,60.31
2018-03-16T00:18:21.966Z,60.73
2018-03-16T00:20:54.471Z,59.32
2018-03-16T00:23:26.949Z,59.10
2018-03-16T00:25:59.446Z,60.14
2018-03-16T00:28:31.931Z,62.05
2018-03-16T00:31:04.438Z,59.94
2018-03-16T00:33:36.916Z,61.25
2018-03-16T00:36:09.405Z,59.73
2018-03-16T00:38:42.059Z,61.49
2018-03-16T00:41:14.715Z,61.27
2018-03-16T00:43:47.311Z,60.29
2018-03-16T00:46:19.824Z,59.08
2018-03-16T00:48:52.351Z,61.38
2018-03-16T00:51:24.853Z,60.50
2018-03-16T00:53:57.326Z,60.86
2018-03-16T00:56:29.828Z,59.37
2018-03-16T00:59:02.297Z,58.77
2018-03-16T01:01:34.790Z,58.79
2018-03-16T01:04:07.262Z,59.39
2018-03-16T01:06:39.755Z,58.82
2018-03-16T01:09:12.441Z,58.64
2018-03-16T01:11:45.062Z,58.67
2018-03-16T01:14:17.651Z,63.63
2018-03-16T01:16:50.257Z,60.46
2018-03-16T01:19:22.825Z,60.40
2018-03-16T01:21:55.328Z,61.07
2018-03-16T01:24:27.817Z,60.83
2018-03-16T01:27:00.326Z,60.96
2018-03-16T01:29:32.812Z,60.15
2018-03-16T01:32:05.306Z,59.69
2018-03-16T01:34:37.786Z,60.14
2018-03-16T01:37:10.295Z,59.05
2018-03-16T01:39:43.245Z,61.70
2018-03-16T01:42:15.877Z,59.94
2018-03-16T01:44:48.401Z,60.18
2018-03-16T01:47:20.949Z,60.44
2018-03-16T01:49:53.462Z,61.76
2018-03-16T01:52:25.958Z,59.79
2018-03-16T01:54:58.437Z,60.00
2018-03-16T01:57:30.934Z,61.63
2018-03-16T02:00:03.412Z,59.22
2018-03-16T02:02:35.915Z,59.78
2018-03-16T02:05:08.402Z,58.89
2018-03-16T02:07:40.903Z,59.54
2018-03-16T02:10:13.467Z,59.23
2018-03-16T02:12:46.127Z,60.07
2018-03-16T02:15:18.656Z,60.42
2018-03-16T02:17:51.226Z,59.65
2018-03-16T02:20:23.757Z,58.86
2018-03-16T02:22:56.272Z,60.43
2018-03-16T02:25:28.751Z,59.29
2018-03-16T02:28:01.248Z,59.25
2018-03-16T02:30:33.726Z,61.35
2018-03-16T02:33:06.230Z,59.21
2018-03-16T02:35:38.706Z,59.61
2018-03-16T02:38:11.211Z,59.62
2018-03-16T02:40:44.335Z,58.48
2018-03-16T02:43:17.137Z,58.33
2018-03-16T02:45:49.670Z,58.77
2018-03-16T02:48:22.235Z,61.26
2018-03-16T02:50:54.734Z,58.56
2018-03-16T02:53:27.208Z,60.10
2018-03-16T02:55:59.723Z,61.49
2018-03-16T02:58:32.204Z,58.60
2018-03-16T03:01:04.711Z,59.70
2018-03-16T03:03:37.202Z,59.81
2018-03-16T03:06:09.704Z,58.64
2018-03-16T03:08:43.499Z,59.48
2018-03-16T03:11:16.350Z,58.83
2018-03-16T03:13:48.867Z,60.18
2018-03-16T03:16:21.390Z,59.97
2018-03-16T03:18:53.894Z,58.46
2018-03-16T03:21:26.386Z,57.48
2018-03-16T03:23:58.857Z,57.55
2018-03-16T03:26:31.361Z,57.13
2018-03-16T03:29:03.829Z,58.07
2018-03-16T03:31:36.324Z,59.84
2018-03-16T03:34:08.802Z,59.89
2018-03-16T03:36:41.310Z,57.71
2018-03-16T03:39:13.881Z,58.54
2018-03-16T03:41:46.411Z,57.46
2018-03-16T03:44:18.927Z,58.25
2018-03-16T03:46:51.437Z,56.18
2018-03-16T03:49:23.949Z,58.16
2018-03-16T03:51:56.450Z,58.28
2018-03-16T03:54:28.927Z,57.08
2018-03-16T03:57:01.418Z,58.41
2018-03-16T03:59:33.885Z,56.95
2018-03-16T04:02:06.382Z,57.63
2018-03-16T04:04:38.850Z,57.85
2018-03-16T04:07:11.351Z,56.11
2018-03-16T04:09:44.646Z,56.09
2018-03-16T04:12:17.394Z,57.03
2018-03-16T04:14:49.945Z,56.09
2018-03-16T04:17:22.542Z,56.46
2018-03-16T04:19:55.051Z,56.37
2018-03-16T04:22:27.558Z,55.92
2018-03-16T04:25:00.035Z,56.12
2018-03-16T04:27:32.529Z,55.44
2018-03-16T04:30:05.033Z,57.10
2018-03-16T04:32:37.534Z,56.97
2018-03-16T04:35:10.032Z,56.14
2018-03-16T04:37:42.909Z,55.69
2018-03-16T04:40:15.517Z,56.18
2018-03-16T04:42:48.090Z,55.82
2018-03-16T04:45:20.665Z,54.83
2018-03-16T04:47:53.247Z,54.97
2018-03-16T04:50:25.760Z,54.69
2018-03-16T04:52:58.263Z,55.67
2018-03-16T04:55:30.744Z,55.05
2018-03-16T04:58:03.241Z,55.18
2018-03-16T05:00:35.724Z,55.18
2018-03-16T05:03:08.238Z,55.11
2018-03-16T05:05:40.714Z,55.05
2018-03-16T05:08:13.419Z,54.81
2018-03-16T05:10:46.050Z,54.36
2018-03-16T05:13:18.684Z,55.38
2018-03-16T05:15:51.271Z,54.92
2018-03-16T05:18:23.804Z,55.37
2018-03-16T05:20:56.280Z,56.11
2018-03-16T05:23:28.779Z,54.60
2018-03-16T05:26:01.247Z,54.14
2018-03-16T05:28:33.752Z,54.39
2018-03-16T05:31:06.235Z,54.86
2018-03-16T05:33:38.726Z,55.65
2018-03-16T05:36:11.220Z,55.66
2018-03-16T05:38:43.792Z,55.18
2018-03-16T05:41:16.377Z,56.03
2018-03-16T05:43:48.933Z,55.00
2018-03-16T05:46:22.184Z,54.65
2018-03-16T05:48:54.985Z,54.89
2018-03-16T05:51:27.467Z,55.10
2018-03-16T05:53:59.963Z,56.91
2018-03-16T05:56:32.443Z,57.93
2018-03-16T05:59:04.952Z,54.64
2018-03-16T06:01:37.440Z,54.74
2018-03-16T06:04:09.946Z,54.34
2018-03-16T06:06:42.761Z,54.70
2018-03-16T06:09:15.539Z,54.27
2018-03-16T06:11:48.049Z,54.09
2018-03-16T06:14:20.610Z,53.90
2018-03-16T06:16:53.208Z,54.08
2018-03-16T06:19:25.733Z,53.75
2018-03-16T06:21:58.227Z,54.03
2018-03-16T06:24:30.711Z,54.35
2018-03-16T06:27:03.205Z,54.38
2018-03-16T06:29:35.683Z,54.10
2018-03-16T06:32:08.179Z,54.13
2018-03-16T06:34:40.655Z,54.55
2018-03-16T06:37:13.415Z,53.97
2018-03-16T06:39:46.053Z,55.03
2018-03-16T06:42:18.643Z,53.79
2018-03-16T06:44:51.331Z,54.58
2018-03-16T06:47:23.959Z,55.39
2018-03-16T06:49:56.475Z,54.43
2018-03-16T06:52:28.984Z,54.03
2018-03-16T06:55:01.462Z,54.08
2018-03-16T06:57:33.965Z,54.61
2018-03-16T07:00:06.439Z,53.97
2018-03-16T07:02:38.942Z,52.82
2018-03-16T07:05:11.421Z,53.63
2018-03-16T07:07:44.453Z,52.86
2018-03-16T07:10:17.636Z,53.37
2018-03-16T07:12:50.501Z,53.56
2018-03-16T07:15:37.891Z,52.68
2018-03-16T07:18:10.383Z,53.22
2018-03-16T07:20:43.161Z,52.74
2018-03-16T07:23:15.967Z,54.00
2018-03-16T07:25:48.631Z,53.75
2018-03-16T07:28:21.273Z,53.28
2018-03-16T07:30:53.906Z,53.42
2018-03-16T07:33:26.462Z,53.97
2018-03-16T07:35:58.939Z,53.38
2018-03-16T07:38:31.439Z,53.16
2018-03-16T07:41:03.912Z,53.49
2018-03-16T07:43:36.416Z,52.43
2018-03-16T07:46:14.625Z,53.42
2018-03-16T07:48:47.774Z,52.54
2018-03-16T07:51:21.195Z,52.95
2018-03-16T07:53:53.856Z,52.80
2018-03-16T07:56:26.352Z,52.79
2018-03-16T07:58:58.855Z,52.82
2018-03-16T08:01:31.335Z,52.75
2018-03-16T08:04:03.835Z,53.17
2018-03-16T08:06:36.312Z,53.46
2018-03-16T08:09:08.816Z,54.26
2018-03-16T08:11:41.308Z,52.73
2018-03-16T08:14:15.055Z,53.90
2018-03-16T08:16:47.743Z,54.27
2018-03-16T08:19:20.337Z,53.52
2018-03-16T08:21:52.932Z,53.26
2018-03-16T08:24:25.514Z,52.49
2018-03-16T08:26:58.007Z,52.87
2018-03-16T08:29:30.511Z,52.35
2018-03-16T08:32:02.995Z,52.63
2018-03-16T08:34:35.490Z,52.69
2018-03-16T08:37:07.974Z,53.26
2018-03-16T08:39:40.476Z,53.12
2018-03-16T08:42:13.466Z,53.20
2018-03-16T08:44:46.753Z,53.30
2018-03-16T08:47:19.408Z,53.80
2018-03-16T08:49:52.040Z,53.30
2018-03-16T08:52:24.750Z,53.55
2018-03-16T08:54:57.284Z,53.24
2018-03-16T08:57:29.764Z,53.50
2018-03-16T09:00:02.266Z,53.13
2018-03-16T09:02:34.766Z,53.02
2018-03-16T09:05:07.272Z,53.08
2018-03-16T09:07:39.771Z,53.11
2018-03-16T09:10:12.918Z,52.46
2018-03-16T09:12:45.767Z,53.10
2018-03-16T09:15:18.417Z,52.27
2018-03-16T09:17:51.069Z,52.25
2018-03-16T09:20:23.701Z,52.66
2018-03-16T09:22:56.319Z,53.21
2018-03-16T09:25:28.865Z,52.49
2018-03-16T09:28:01.328Z,53.87
2018-03-16T09:30:34.263Z,54.02
2018-03-16T09:33:06.763Z,52.87
2018-03-16T09:35:39.240Z,52.10
2018-03-16T09:38:11.770Z,52.26
2018-03-16T09:40:44.695Z,52.15
2018-03-16T09:43:17.722Z,53.38
2018-03-16T09:45:50.432Z,52.54
2018-03-16T09:48:23.091Z,52.85
2018-03-16T09:50:55.631Z,52.01
2018-03-16T09:53:31.047Z,52.00
2018-03-16T09:56:03.523Z,51.99
2018-03-16T09:58:36.003Z,51.60
2018-03-16T10:01:08.513Z,52.08
2018-03-16T10:03:41.018Z,51.76
2018-03-16T10:06:14.631Z,51.72
2018-03-16T10:08:47.367Z,51.53
2018-03-16T10:11:19.999Z,51.93
2018-03-16T10:13:52.565Z,53.09
2018-03-16T10:16:25.110Z,51.28
2018-03-16T10:18:57.667Z,50.83
2018-03-16T10:21:30.145Z,50.64
2018-03-16T10:24:02.648Z,51.19
2018-03-16T10:26:35.114Z,50.31
2018-03-16T10:29:07.602Z,50.09
2018-03-16T10:31:40.074Z,50.54
2018-03-16T10:34:12.813Z,50.80
2018-03-16T10:36:45.968Z,51.19
2018-03-16T10:39:18.817Z,51.39
2018-03-16T10:41:51.414Z,51.73
2018-03-16T10:44:24.027Z,51.25
2018-03-16T10:46:56.565Z,51.12
2018-03-16T10:49:29.080Z,51.94
2018-03-16T10:52:01.543Z,52.13
2018-03-16T10:54:34.047Z,51.90
2018-03-16T10:57:06.552Z,51.94
2018-03-16T10:59:39.043Z,52.84
2018-03-16T11:02:17.464Z,52.82
2018-03-16T11:04:55.589Z,52.34
2018-03-16T11:07:44.040Z,52.42
2018-03-16T11:10:22.378Z,52.89
2018-03-16T11:12:54.883Z,52.13
2018-03-16T11:15:27.415Z,52.53
2018-03-16T11:17:59.926Z,51.99
2018-03-16T11:20:32.427Z,52.08
2018-03-16T11:23:04.890Z,51.28
2018-03-16T11:25:37.382Z,50.96
2018-03-16T11:28:09.883Z,52.57
2018-03-16T11:30:42.721Z,51.12
2018-03-16T11:33:15.549Z,51.41
2018-03-16T11:35:49.487Z,50.85
2018-03-16T11:38:22.658Z,51.55
2018-03-16T11:40:55.363Z,50.69
2018-03-16T11:43:29.181Z,52.14
2018-03-16T11:46:02.180Z,51.33
2018-03-16T11:48:34.994Z,50.34
2018-03-16T11:51:07.792Z,50.32
2018-03-16T11:53:41.760Z,49.93
2018-03-16T11:56:15.013Z,49.03
2018-03-16T11:58:48.162Z,48.76
2018-03-16T12:01:21.182Z,48.42
2018-03-16T12:03:56.262Z,49.04
2018-03-16T12:06:28.995Z,48.87
2018-03-16T12:09:01.533Z,48.09
2018-03-16T12:11:34.046Z,48.08
2018-03-16T12:14:06.698Z,48.35
2018-03-16T12:16:39.404Z,48.61
2018-03-16T12:19:11.985Z,48.36
2018-03-16T12:21:44.850Z,48.46
2018-03-16T12:24:17.776Z,47.66
2018-03-16T12:26:50.516Z,48.19
2018-03-16T12:29:23.395Z,48.28
2018-03-16T12:31:55.999Z,48.72
2018-03-16T12:34:28.538Z,47.41
2018-03-16T12:37:01.058Z,47.73
2018-03-16T12:39:33.721Z,47.47
2018-03-16T12:42:06.289Z,48.20
2018-03-16T12:44:38.803Z,47.78
2018-03-16T12:47:11.274Z,48.13
2018-03-16T12:49:44.468Z,48.17
2018-03-16T12:52:17.809Z,48.81
2018-03-16T12:54:50.364Z,47.80
2018-03-16T12:57:22.917Z,48.21
2018-03-16T12:59:55.730Z,48.20
2018-03-16T13:02:28.456Z,48.11
2018-03-16T13:05:01.157Z,47.82
2018-03-16T13:07:33.720Z,48.92
2018-03-16T13:10:06.375Z,48.19
2018-03-16T13:12:38.918Z,47.92
2018-03-16T13:15:11.568Z,47.83
2018-03-16T13:17:44.550Z,48.05
2018-03-16T13:20:17.460Z,47.88
2018-03-16T13:22:50.107Z,47.92
2018-03-16T13:25:22.904Z,49.04
2018-03-16T13:27:55.474Z,48.61
2018-03-16T13:30:28.023Z,48.67
2018-03-16T13:33:00.542Z,48.89
2018-03-16T13:35:33.099Z,50.84
2018-03-16T13:38:05.650Z,50.07
2018-03-16T13:40:38.159Z,50.17
2018-03-16T13:43:10.702Z,49.99
2018-03-16T13:45:44.407Z,50.20
2018-03-16T13:48:17.078Z,50.08
2018-03-16T13:50:49.688Z,52.07
2018-03-16T13:53:22.318Z,50.99
2018-03-16T13:55:55.018Z,52.93
2018-03-16T13:58:27.589Z,51.34
2018-03-16T14:01:00.170Z,51.62
2018-03-16T14:03:32.777Z,52.76
2018-03-16T14:06:05.283Z,51.65
2018-03-16T14:08:37.847Z,51.80
2018-03-16T14:11:10.466Z,51.66
2018-03-16T14:13:43.163Z,50.90
2018-03-16T14:16:16.312Z,50.79
2018-03-16T14:18:49.043Z,51.00
2018-03-16T14:21:21.984Z,50.61
2018-03-16T14:23:54.621Z,50.64
2018-03-16T14:26:28.365Z,50.57
2018-03-16T14:29:01.111Z,50.91
2018-03-16T14:31:33.766Z,51.02
2018-03-16T14:34:06.422Z,50.19
2018-03-16T14:36:39.380Z,50.87
2018-03-16T14:39:13.186Z,52.73
2018-03-16T14:41:46.217Z,52.09
2018-03-16T14:44:19.401Z,51.42
2018-03-16T14:46:52.613Z,51.74
2018-03-16T14:49:25.505Z,51.78
2018-03-16T14:51:58.207Z,51.14
2018-03-16T14:54:31.043Z,52.14
2018-03-16T14:57:03.619Z,51.64
2018-03-16T14:59:36.297Z,51.83
2018-03-16T15:02:09.016Z,51.26
2018-03-16T15:04:42.272Z,51.06
2018-03-16T15:07:15.073Z,51.74
2018-03-16T15:09:48.289Z,51.07
2018-03-16T15:12:21.180Z,51.27
2018-03-16T15:14:54.196Z,51.13
2018-03-16T15:17:26.838Z,50.26
2018-03-16T15:19:59.450Z,49.91
2018-03-16T15:22:31.999Z,49.85
2018-03-16T15:25:04.630Z,49.66
2018-03-16T15:27:37.445Z,49.64
2018-03-16T15:30:10.148Z,50.26
2018-03-16T15:32:42.858Z,49.23
2018-03-16T15:35:18.129Z,49.16
2018-03-16T15:37:51.117Z,50.09
2018-03-16T15:40:24.047Z,50.18
2018-03-16T15:42:56.631Z,48.26
2018-03-16T15:45:29.245Z,48.24
2018-03-16T15:48:01.851Z,49.04
2018-03-16T15:50:34.429Z,48.45
2018-03-16T15:53:07.169Z,48.16
2018-03-16T15:55:40.721Z,48.33
2018-03-16T15:58:13.490Z,48.67
2018-03-16T16:00:46.765Z,48.46
2018-03-16T16:03:19.433Z,48.77
2018-03-16T16:05:52.229Z,48.31
2018-03-16T16:08:24.804Z,48.34
2018-03-16T16:10:57.631Z,48.62
2018-03-16T16:13:30.229Z,48.20
2018-03-16T16:16:02.798Z,48.44
2018-03-16T16:18:35.334Z,48.80
2018-03-16T16:21:07.929Z,49.46
2018-03-16T16:23:40.606Z,49.16
2018-03-16T16:26:14.133Z,48.83
2018-03-16T16:28:47.081Z,48.91
2018-03-16T16:31:20.074Z,49.21
2018-03-16T16:33:52.927Z,49.90
2018-03-16T16:36:25.931Z,49.34
2018-03-16T16:38:58.488Z,49.33
2018-03-16T16:41:31.427Z,48.84
2018-03-16T16:44:04.025Z,48.86
2018-03-16T16:46:36.835Z,49.10
2018-03-16T16:49:09.425Z,48.95
2018-03-16T16:51:42.158Z,49.61
2018-03-16T16:54:15.122Z,48.83
2018-03-16T16:56:48.087Z,48.95
2018-03-16T16:59:20.796Z,49.36
2018-03-16T17:01:53.870Z,49.27
2018-03-16T17:04:26.641Z,48.53
2018-03-16T17:06:59.303Z,48.80
2018-03-16T17:09:31.841Z,49.19
2018-03-16T17:12:04.450Z,48.64
2018-03-16T17:14:36.967Z,48.51
2018-03-16T17:17:09.516Z,48.90
2018-03-16T17:19:42.440Z,49.30
2018-03-16T17:22:15.614Z,48.68
2018-03-16T17:24:48.499Z,50.16
2018-03-16T17:27:21.661Z,49.93
2018-03-16T17:29:54.873Z,49.54
2018-03-16T17:32:27.575Z,49.08
2018-03-16T17:35:00.339Z,49.07
2018-03-16T17:37:32.996Z,49.00
2018-03-16T17:40:05.751Z,49.13
2018-03-16T17:42:38.280Z,49.57
2018-03-16T17:45:10.834Z,49.74
2018-03-16T17:47:43.649Z,51.01
2018-03-16T17:50:16.560Z,49.79
2018-03-16T17:52:49.293Z,50.82
2018-03-16T17:55:21.946Z,50.66
2018-03-16T17:57:55.646Z,50.21
2018-03-16T18:00:28.267Z,50.28
2018-03-16T18:03:01.062Z,50.40
2018-03-16T18:05:33.704Z,50.00
2018-03-16T18:08:06.326Z,51.49
2018-03-16T18:10:38.953Z,50.11
2018-03-16T18:13:12.047Z,50.28
2018-03-16T18:15:45.343Z,49.65
2018-03-16T18:18:18.304Z,49.75
2018-03-16T18:20:51.159Z,50.38
2018-03-16T18:23:24.105Z,50.40
2018-03-16T18:25:56.969Z,50.55
2018-03-16T18:28:30.200Z,50.24
2018-03-16T18:31:02.877Z,50.58
2018-03-16T18:33:35.497Z,49.53
2018-03-16T18:36:08.228Z,50.03
2018-03-16T18:38:40.833Z,50.37
2018-03-16T18:41:13.516Z,49.77
2018-03-16T18:43:46.495Z,49.54
2018-03-16T18:46:19.144Z,49.38
2018-03-16T18:48:52.065Z,50.52
2018-03-16T18:51:24.965Z,49.61
2018-03-16T18:53:57.595Z,49.24
2018-03-16T18:56:30.364Z,50.78
2018-03-16T18:59:02.980Z,49.72
2018-03-16T19:01:35.692Z,49.46
2018-03-16T19:04:14.507Z,50.59
2018-03-16T19:06:49.470Z,50.31
2018-03-16T19:12:08.356Z,49.94
2018-03-16T19:14:40.935Z,49.71
2018-03-16T19:20:02.934Z,49.58
2018-03-16T19:22:35.549Z,50.42
2018-03-16T19:25:08.387Z,49.42
2018-03-16T19:27:54.356Z,47.96
2018-03-16T19:30:27.170Z,47.71
2018-03-16T19:32:59.835Z,48.02
2018-03-16T19:35:32.706Z,48.61
2018-03-16T19:38:05.409Z,47.67
2018-03-16T19:40:37.972Z,47.00
2018-03-16T19:43:18.283Z,45.87
2018-03-16T19:46:04.949Z,46.29
2018-03-16T19:48:49.560Z,45.13
2018-03-16T19:51:25.669Z,45.45
2018-03-16T19:59:54.048Z,46.57
2018-03-16T20:02:28.668Z,45.53
2018-03-16T20:05:06.202Z,45.52
2018-03-16T20:07:40.856Z,45.21
2018-03-16T20:10:23.597Z,45.86
2018-03-16T20:12:57.833Z,45.21
2018-03-16T20:15:30.438Z,45.41
2018-03-16T20:18:02.930Z,47.13
2018-03-16T20:20:35.408Z,47.05
2018-03-16T20:23:07.902Z,47.67
2018-03-16T20:25:40.390Z,46.36
2018-03-16T20:28:13.204Z,46.90
2018-03-16T20:30:45.783Z,46.98
2018-03-16T20:33:19.450Z,46.59
2018-03-16T20:35:52.016Z,46.90
2018-03-16T20:38:24.520Z,46.84
2018-03-16T20:40:57.000Z,47.79
2018-03-16T20:43:29.919Z,46.79
2018-03-16T20:46:03.308Z,46.83
2018-03-16T20:48:37.583Z,46.24
2018-03-16T20:51:10.794Z,47.37
2018-03-16T20:53:43.914Z,48.13
2018-03-16T20:56:16.782Z,48.21
2018-03-16T20:58:49.500Z,49.43
2018-03-16T21:01:22.448Z,48.02
2018-03-16T21:03:55.749Z,47.95
2018-03-16T21:06:28.552Z,47.29
2018-03-16T21:09:01.075Z,47.69
2018-03-16T21:11:35.147Z,47.73
2018-03-16T21:14:08.499Z,47.42
2018-03-16T21:16:41.452Z,49.45
2018-03-16T21:19:14.358Z,47.07
2018-03-16T21:21:47.370Z,47.85
2018-03-16T21:24:20.302Z,46.71
2018-03-16T21:26:53.152Z,48.11
2018-03-16T21:29:26.939Z,46.90
2018-03-16T21:32:01.080Z,45.86
2018-03-16T21:34:33.706Z,45.75
2018-03-16T21:37:06.506Z,45.73
2018-03-16T21:39:39.162Z,45.70
2018-03-16T21:42:11.737Z,44.73
2018-03-16T21:44:44.272Z,44.62
2018-03-16T21:47:16.747Z,45.31
2018-03-16T21:49:49.294Z,45.25
2018-03-16T21:52:21.769Z,45.21
2018-03-16T21:54:54.268Z,44.47
2018-03-16T21:57:26.735Z,44.43
2018-03-16T21:59:59.234Z,44.02
2018-03-16T22:02:31.774Z,45.57
2018-03-16T22:05:04.425Z,44.75
2018-03-16T22:07:37.124Z,43.99
2018-03-16T22:10:09.706Z,44.53
2018-03-16T22:12:42.277Z,45.12
2018-03-16T22:15:14.816Z,44.42
2018-03-16T22:17:47.370Z,44.08
2018-03-16T22:20:19.866Z,44.03
2018-03-16T22:22:52.340Z,43.98
2018-03-16T22:25:24.844Z,43.49
2018-03-16T22:27:57.325Z,44.44
2018-03-16T22:30:30.096Z,43.65
2018-03-16T22:33:02.715Z,44.62
2018-03-16T22:35:35.686Z,43.70
2018-03-16T22:38:08.313Z,43.60
2018-03-16T22:40:40.996Z,43.51
2018-03-16T22:43:13.971Z,43.97
2018-03-16T22:45:46.798Z,43.67
2018-03-16T22:48:19.392Z,43.79
2018-03-16T22:50:52.114Z,43.66
2018-03-16T22:53:25.011Z,43.19
2018-03-16T22:55:57.559Z,42.87
2018-03-16T22:58:30.348Z,43.50
2018-03-16T23:01:02.873Z,44.88
2018-03-16T23:03:35.503Z,43.57
2018-03-16T23:06:08.321Z,43.46
2018-03-16T23:08:41.201Z,43.38
2018-03-16T23:11:13.882Z,43.10
2018-03-16T23:13:46.468Z,42.65
2018-03-16T23:16:19.579Z,43.35
2018-03-16T23:18:52.169Z,42.38
2018-03-16T23:21:24.675Z,42.88
2018-03-16T23:23:57.163Z,41.57
2018-03-16T23:26:29.659Z,41.03
2018-03-16T23:29:02.574Z,42.27
2018-03-16T23:31:35.215Z,42.24
2018-03-16T23:34:08.099Z,41.82
2018-03-16T23:36:40.764Z,42.65
2018-03-16T23:39:13.823Z,42.54
2018-03-16T23:41:46.329Z,43.29
2018-03-16T23:44:18.828Z,42.60
2018-03-16T23:46:51.550Z,41.23
2018-03-16T23:49:24.491Z,41.11
2018-03-16T23:51:57.129Z,41.30
2018-03-16T23:54:29.655Z,41.40
2018-03-16T23:57:02.161Z,40.89
2018-03-16T23:59:35.024Z,40.84
